AAL1779 TNCB-KMIA
Flight info
| Callsign | AAL1779 |
|---|---|
| Flight time | 2h 44m |
| Altitude | 38000 |
| Route | VESKA1R VESKA DCT GELOG UL795 ALTIB UM779 ZEUSS VIICE2 |
| Aircraft | B38M/M-SDE1FGHILORVWXY/HB1 |
Departure
| Time | 2026-04-30 12:12 |
|---|---|
| Airport | Flamingo International Airport (TNCB) |
Arrival
| Time | 2026-04-30 14:57 |
|---|---|
| Airport | Miami International Airport (KMIA) |
| Time | Latitude | Longitude | Altitude | Speed | Heading |
|---|---|---|---|---|---|
| 2026-04-30 11:46 | 12.13256 | -68.27662 | 30 ft | 0 kts | 47° |
| 2026-04-30 12:04 | 12.13252 | -68.27666 | 30 ft | 2 kts | 42° |
| 2026-04-30 12:04 | 12.13237 | -68.27675 | 30 ft | 3 kts | 8° |
| 2026-04-30 12:04 | 12.13219 | -68.27673 | 31 ft | 3 kts | 331° |
| 2026-04-30 12:05 | 12.13205 | -68.27661 | 31 ft | 3 kts | 296° |
| 2026-04-30 12:05 | 12.13202 | -68.27649 | 31 ft | 1 kts | 272° |
| 2026-04-30 12:05 | 12.13201 | -68.27649 | 31 ft | 0 kts | 272° |
| 2026-04-30 12:08 | 12.13202 | -68.27666 | 3 ft | 6 kts | 272° |
| 2026-04-30 12:09 | 12.13204 | -68.27731 | 31 ft | 11 kts | 271° |
| 2026-04-30 12:09 | 12.13167 | -68.27772 | 30 ft | 10 kts | 184° |
| 2026-04-30 12:09 | 12.13113 | -68.27810 | 30 ft | 12 kts | 258° |
| 2026-04-30 12:09 | 12.13114 | -68.27904 | 29 ft | 15 kts | 271° |
| 2026-04-30 12:10 | 12.13110 | -68.28008 | 30 ft | 13 kts | 244° |
| 2026-04-30 12:10 | 12.13057 | -68.28089 | 30 ft | 13 kts | 245° |
| 2026-04-30 12:10 | 12.13060 | -68.28129 | 30 ft | 4 kts | 318° |
| 2026-04-30 12:10 | 12.13108 | -68.28127 | 30 ft | 10 kts | 33° |
| 2026-04-30 12:11 | 12.13120 | -68.28057 | 30 ft | 11 kts | 95° |
| 2026-04-30 12:11 | 12.13119 | -68.28044 | 30 ft | 0 kts | 92° |
| 2026-04-30 12:11 | 12.13119 | -68.28043 | 30 ft | 1 kts | 92° |
| 2026-04-30 12:12 | 12.13114 | -68.27914 | 29 ft | 51 kts | 91° |
| 2026-04-30 12:12 | 12.13096 | -68.27291 | 30 ft | 121 kts | 91° |
| 2026-04-30 12:12 | 12.13072 | -68.26258 | 230 ft | 158 kts | 92° |
| 2026-04-30 12:12 | 12.13054 | -68.25116 | 1001 ft | 158 kts | 92° |
| 2026-04-30 12:13 | 12.13019 | -68.24033 | 1910 ft | 159 kts | 94° |
| 2026-04-30 12:13 | 12.12973 | -68.22826 | 2539 ft | 181 kts | 94° |
| 2026-04-30 12:13 | 12.12919 | -68.21436 | 3037 ft | 210 kts | 94° |
| 2026-04-30 12:13 | 12.12865 | -68.19852 | 3681 ft | 229 kts | 94° |
| 2026-04-30 12:14 | 12.12818 | -68.18187 | 4615 ft | 244 kts | 91° |
| 2026-04-30 12:14 | 12.13259 | -68.16436 | 5264 ft | 267 kts | 63° |
| 2026-04-30 12:14 | 12.14546 | -68.15043 | 6269 ft | 277 kts | 35° |
| 2026-04-30 12:14 | 12.16359 | -68.14365 | 7144 ft | 287 kts | 11° |
| 2026-04-30 12:15 | 12.18344 | -68.14071 | 8128 ft | 290 kts | 12° |
| 2026-04-30 12:15 | 12.20350 | -68.13721 | 9088 ft | 293 kts | 13° |
| 2026-04-30 12:15 | 12.22362 | -68.13371 | 10071 ft | 295 kts | 13° |
| 2026-04-30 12:15 | 12.24439 | -68.13011 | 10645 ft | 311 kts | 13° |
| 2026-04-30 12:16 | 12.26630 | -68.12633 | 11203 ft | 326 kts | 12° |
| 2026-04-30 12:16 | 12.28900 | -68.12242 | 11901 ft | 333 kts | 12° |
| 2026-04-30 12:16 | 12.31172 | -68.11851 | 12729 ft | 338 kts | 12° |
| 2026-04-30 12:16 | 12.33513 | -68.11447 | 13525 ft | 344 kts | 12° |
| 2026-04-30 12:17 | 12.38303 | -68.10621 | 14961 ft | 353 kts | 11° |
| 2026-04-30 12:17 | 12.40746 | -68.10200 | 15640 ft | 359 kts | 11° |
| 2026-04-30 12:17 | 12.43231 | -68.09771 | 16332 ft | 364 kts | 10° |
| 2026-04-30 12:18 | 12.45747 | -68.09337 | 17026 ft | 368 kts | 10° |
| 2026-04-30 12:18 | 12.48297 | -68.08896 | 17678 ft | 373 kts | 10° |
| 2026-04-30 12:18 | 12.50843 | -68.08457 | 18305 ft | 378 kts | 9° |
| 2026-04-30 12:18 | 12.53450 | -68.08006 | 18867 ft | 381 kts | 9° |
| 2026-04-30 12:19 | 12.56079 | -68.07603 | 19460 ft | 383 kts | 2° |
| 2026-04-30 12:19 | 12.58730 | -68.07849 | 20026 ft | 383 kts | 343° |
| 2026-04-30 12:19 | 12.61179 | -68.08908 | 20572 ft | 383 kts | 326° |
| 2026-04-30 12:19 | 12.63381 | -68.10451 | 21121 ft | 385 kts | 322° |
| 2026-04-30 12:20 | 12.65567 | -68.12061 | 21664 ft | 387 kts | 322° |
| 2026-04-30 12:20 | 12.67748 | -68.13702 | 22207 ft | 390 kts | 321° |
| 2026-04-30 12:20 | 12.69931 | -68.15365 | 22757 ft | 392 kts | 321° |
| 2026-04-30 12:20 | 12.72093 | -68.17027 | 23284 ft | 395 kts | 321° |
| 2026-04-30 12:21 | 12.74296 | -68.18727 | 23753 ft | 397 kts | 321° |
| 2026-04-30 12:21 | 12.76516 | -68.20441 | 24191 ft | 400 kts | 321° |
| 2026-04-30 12:21 | 12.78744 | -68.22163 | 24634 ft | 402 kts | 321° |
| 2026-04-30 12:21 | 12.80982 | -68.23893 | 25071 ft | 404 kts | 320° |
| 2026-04-30 12:22 | 12.83234 | -68.25635 | 25518 ft | 406 kts | 320° |
| 2026-04-30 12:22 | 12.85495 | -68.27384 | 25955 ft | 408 kts | 320° |
| 2026-04-30 12:22 | 12.87771 | -68.29145 | 26389 ft | 411 kts | 320° |
| 2026-04-30 12:22 | 12.90062 | -68.30918 | 26809 ft | 413 kts | 320° |
| 2026-04-30 12:23 | 12.92367 | -68.32702 | 27222 ft | 416 kts | 320° |
| 2026-04-30 12:23 | 12.94681 | -68.34494 | 27630 ft | 419 kts | 320° |
| 2026-04-30 12:23 | 12.97018 | -68.36303 | 28037 ft | 421 kts | 320° |
| 2026-04-30 12:23 | 12.99335 | -68.38099 | 28420 ft | 424 kts | 320° |
| 2026-04-30 12:24 | 13.01690 | -68.39924 | 28819 ft | 426 kts | 320° |
| 2026-04-30 12:24 | 13.04064 | -68.41763 | 29209 ft | 428 kts | 320° |
| 2026-04-30 12:24 | 13.06452 | -68.43614 | 29580 ft | 431 kts | 320° |
| 2026-04-30 12:24 | 13.08856 | -68.45478 | 29954 ft | 434 kts | 320° |
| 2026-04-30 12:25 | 13.11273 | -68.47353 | 30270 ft | 436 kts | 320° |
| 2026-04-30 12:25 | 13.13700 | -68.49236 | 30607 ft | 438 kts | 320° |
| 2026-04-30 12:25 | 13.16139 | -68.51128 | 30940 ft | 439 kts | 320° |
| 2026-04-30 12:25 | 13.18583 | -68.53026 | 31271 ft | 441 kts | 320° |
| 2026-04-30 12:26 | 13.21001 | -68.54903 | 31615 ft | 442 kts | 320° |
| 2026-04-30 12:26 | 13.23463 | -68.56815 | 31948 ft | 443 kts | 319° |
| 2026-04-30 12:26 | 13.25925 | -68.58727 | 32276 ft | 445 kts | 319° |
| 2026-04-30 12:26 | 13.28403 | -68.60652 | 32610 ft | 446 kts | 319° |
| 2026-04-30 12:27 | 13.30883 | -68.62580 | 32934 ft | 447 kts | 319° |
| 2026-04-30 12:27 | 13.33371 | -68.64514 | 33262 ft | 448 kts | 319° |
| 2026-04-30 12:27 | 13.35863 | -68.66452 | 33570 ft | 450 kts | 319° |
| 2026-04-30 12:27 | 13.38329 | -68.68370 | 33882 ft | 451 kts | 319° |
| 2026-04-30 12:28 | 13.40862 | -68.70340 | 34219 ft | 451 kts | 319° |
| 2026-04-30 12:28 | 13.43331 | -68.72261 | 34580 ft | 449 kts | 319° |
| 2026-04-30 12:28 | 13.45821 | -68.74199 | 34946 ft | 448 kts | 319° |
| 2026-04-30 12:28 | 13.48305 | -68.76134 | 35284 ft | 447 kts | 319° |
| 2026-04-30 12:29 | 13.50785 | -68.78065 | 35628 ft | 446 kts | 319° |
| 2026-04-30 12:29 | 13.53261 | -68.79994 | 35951 ft | 445 kts | 318° |
| 2026-04-30 12:29 | 13.55729 | -68.81917 | 36283 ft | 444 kts | 318° |
| 2026-04-30 12:29 | 13.58197 | -68.83841 | 36608 ft | 443 kts | 318° |
| 2026-04-30 12:30 | 13.60621 | -68.85731 | 36924 ft | 443 kts | 318° |
| 2026-04-30 12:30 | 13.63072 | -68.87643 | 37239 ft | 442 kts | 318° |
| 2026-04-30 12:30 | 13.65520 | -68.89552 | 37536 ft | 441 kts | 318° |
| 2026-04-30 12:30 | 13.67962 | -68.91457 | 37839 ft | 440 kts | 318° |
| 2026-04-30 12:31 | 13.70403 | -68.93363 | 37969 ft | 440 kts | 317° |
| 2026-04-30 12:31 | 13.72837 | -68.95263 | 37949 ft | 437 kts | 318° |
| 2026-04-30 12:31 | 13.77677 | -68.99043 | 37943 ft | 436 kts | 317° |
| 2026-04-30 12:32 | 13.82481 | -69.02796 | 37941 ft | 436 kts | 317° |
| 2026-04-30 12:32 | 13.87319 | -69.06579 | 37943 ft | 436 kts | 317° |
| 2026-04-30 12:33 | 13.92149 | -69.10357 | 37944 ft | 435 kts | 317° |
| 2026-04-30 12:33 | 13.96973 | -69.14133 | 37944 ft | 435 kts | 317° |
| 2026-04-30 12:34 | 14.01763 | -69.17884 | 37939 ft | 435 kts | 317° |
| 2026-04-30 12:34 | 14.06590 | -69.21666 | 37945 ft | 435 kts | 317° |
| 2026-04-30 12:35 | 14.11410 | -69.25445 | 37942 ft | 434 kts | 317° |
| 2026-04-30 12:35 | 14.16193 | -69.29197 | 37947 ft | 434 kts | 317° |
| 2026-04-30 12:36 | 14.21011 | -69.32978 | 37945 ft | 434 kts | 317° |
| 2026-04-30 12:36 | 14.25820 | -69.36755 | 37946 ft | 434 kts | 317° |
| 2026-04-30 12:37 | 14.30600 | -69.40510 | 37948 ft | 434 kts | 317° |
| 2026-04-30 12:37 | 14.35406 | -69.44288 | 37951 ft | 434 kts | 317° |
| 2026-04-30 12:38 | 14.40211 | -69.48068 | 37944 ft | 434 kts | 317° |
| 2026-04-30 12:38 | 14.45019 | -69.51851 | 37946 ft | 434 kts | 317° |
| 2026-04-30 12:39 | 14.49786 | -69.55606 | 37949 ft | 434 kts | 317° |
| 2026-04-30 12:39 | 14.54583 | -69.59384 | 37947 ft | 433 kts | 317° |
| 2026-04-30 12:40 | 14.59376 | -69.63163 | 37943 ft | 433 kts | 316° |
| 2026-04-30 12:40 | 14.64180 | -69.66952 | 37947 ft | 433 kts | 316° |
| 2026-04-30 12:41 | 14.68968 | -69.70730 | 37946 ft | 433 kts | 316° |
| 2026-04-30 12:41 | 14.73767 | -69.74520 | 37948 ft | 433 kts | 316° |
| 2026-04-30 12:42 | 14.78530 | -69.78283 | 37949 ft | 433 kts | 316° |
| 2026-04-30 12:42 | 14.83320 | -69.82069 | 37948 ft | 433 kts | 316° |
| 2026-04-30 12:43 | 14.88112 | -69.85860 | 37953 ft | 433 kts | 316° |
| 2026-04-30 12:43 | 14.92876 | -69.89630 | 37953 ft | 433 kts | 316° |
| 2026-04-30 12:44 | 14.97662 | -69.93421 | 37950 ft | 433 kts | 316° |
| 2026-04-30 12:44 | 15.02455 | -69.97218 | 37951 ft | 433 kts | 316° |
| 2026-04-30 12:45 | 15.07246 | -70.01016 | 37946 ft | 433 kts | 316° |
| 2026-04-30 12:45 | 15.12002 | -70.04790 | 37948 ft | 433 kts | 316° |
| 2026-04-30 12:46 | 15.16787 | -70.08587 | 37949 ft | 433 kts | 316° |
| 2026-04-30 12:46 | 15.21571 | -70.12387 | 37953 ft | 433 kts | 316° |
| 2026-04-30 12:47 | 15.26351 | -70.16185 | 37949 ft | 433 kts | 316° |
| 2026-04-30 12:47 | 15.31145 | -70.19997 | 37950 ft | 434 kts | 316° |
| 2026-04-30 12:48 | 15.35909 | -70.23787 | 37949 ft | 434 kts | 316° |
| 2026-04-30 12:48 | 15.40709 | -70.27609 | 37952 ft | 435 kts | 316° |
| 2026-04-30 12:49 | 15.45515 | -70.31436 | 37949 ft | 436 kts | 316° |
| 2026-04-30 12:49 | 15.49519 | -70.34628 | 37951 ft | 436 kts | 316° |
| 2026-04-30 12:50 | 15.55124 | -70.39098 | 37952 ft | 437 kts | 316° |
| 2026-04-30 12:50 | 15.59144 | -70.42306 | 37953 ft | 438 kts | 315° |
| 2026-04-30 12:51 | 15.63986 | -70.46172 | 37954 ft | 439 kts | 315° |
| 2026-04-30 12:51 | 15.68827 | -70.50039 | 37956 ft | 439 kts | 315° |
| 2026-04-30 12:52 | 15.73659 | -70.53901 | 37954 ft | 439 kts | 315° |
| 2026-04-30 12:52 | 15.78472 | -70.57750 | 37946 ft | 439 kts | 315° |
| 2026-04-30 12:53 | 15.83310 | -70.61622 | 37954 ft | 438 kts | 315° |
| 2026-04-30 12:53 | 15.88145 | -70.65493 | 37951 ft | 438 kts | 315° |
| 2026-04-30 12:54 | 15.92983 | -70.69370 | 37946 ft | 438 kts | 315° |
| 2026-04-30 12:54 | 15.97817 | -70.73246 | 37950 ft | 438 kts | 314° |
| 2026-04-30 12:55 | 15.99958 | -70.75413 | 37937 ft | 422 kts | 299° |
| 2026-04-30 12:55 | 16.01584 | -70.77931 | 37953 ft | 419 kts | 297° |
| 2026-04-30 12:55 | 16.04738 | -70.83000 | 37952 ft | 419 kts | 296° |
| 2026-04-30 12:56 | 16.07839 | -70.88145 | 37949 ft | 419 kts | 295° |
| 2026-04-30 12:56 | 16.10912 | -70.93296 | 37950 ft | 419 kts | 295° |
| 2026-04-30 12:57 | 16.13987 | -70.98460 | 37956 ft | 419 kts | 295° |
| 2026-04-30 12:57 | 16.17055 | -71.03614 | 37955 ft | 419 kts | 295° |
| 2026-04-30 12:58 | 16.20124 | -71.08775 | 37954 ft | 419 kts | 295° |
| 2026-04-30 12:58 | 16.23173 | -71.13907 | 37951 ft | 419 kts | 295° |
| 2026-04-30 12:59 | 16.26245 | -71.19081 | 37954 ft | 419 kts | 294° |
| 2026-04-30 12:59 | 16.29312 | -71.24248 | 37955 ft | 419 kts | 294° |
| 2026-04-30 13:00 | 16.32378 | -71.29420 | 37951 ft | 419 kts | 294° |
| 2026-04-30 13:00 | 16.35425 | -71.34562 | 37954 ft | 419 kts | 294° |
| 2026-04-30 13:01 | 16.38486 | -71.39732 | 37951 ft | 419 kts | 294° |
| 2026-04-30 13:01 | 16.41547 | -71.44905 | 37950 ft | 419 kts | 294° |
| 2026-04-30 13:02 | 16.44603 | -71.50074 | 37955 ft | 419 kts | 294° |
| 2026-04-30 13:02 | 16.47658 | -71.55246 | 37950 ft | 419 kts | 294° |
| 2026-04-30 13:03 | 16.50694 | -71.60389 | 37952 ft | 419 kts | 294° |
| 2026-04-30 13:03 | 16.53750 | -71.65568 | 37950 ft | 419 kts | 294° |
| 2026-04-30 13:04 | 16.56802 | -71.70747 | 37950 ft | 419 kts | 294° |
| 2026-04-30 13:04 | 16.59837 | -71.75898 | 37945 ft | 419 kts | 294° |
| 2026-04-30 13:05 | 16.62891 | -71.81086 | 37949 ft | 419 kts | 294° |
| 2026-04-30 13:06 | 16.67464 | -71.88863 | 37947 ft | 419 kts | 294° |
| 2026-04-30 13:06 | 16.70513 | -71.94053 | 37945 ft | 419 kts | 294° |
| 2026-04-30 13:07 | 16.73565 | -71.99250 | 37942 ft | 419 kts | 294° |
| 2026-04-30 13:07 | 16.76593 | -72.04413 | 37952 ft | 419 kts | 294° |
| 2026-04-30 13:08 | 16.79644 | -72.09617 | 37946 ft | 419 kts | 294° |
| 2026-04-30 13:08 | 16.82693 | -72.14822 | 37954 ft | 419 kts | 294° |
| 2026-04-30 13:09 | 16.85718 | -72.19990 | 37946 ft | 419 kts | 294° |
| 2026-04-30 13:09 | 16.88758 | -72.25186 | 37958 ft | 419 kts | 294° |
| 2026-04-30 13:10 | 16.91799 | -72.30389 | 37957 ft | 419 kts | 294° |
| 2026-04-30 13:10 | 16.94817 | -72.35557 | 37954 ft | 419 kts | 294° |
| 2026-04-30 13:11 | 16.97852 | -72.40758 | 37959 ft | 419 kts | 294° |
| 2026-04-30 13:11 | 17.00888 | -72.45964 | 37955 ft | 419 kts | 294° |
| 2026-04-30 13:12 | 17.03920 | -72.51168 | 37958 ft | 419 kts | 294° |
| 2026-04-30 13:12 | 17.06957 | -72.56383 | 37952 ft | 419 kts | 294° |
| 2026-04-30 13:13 | 17.11493 | -72.64181 | 37956 ft | 420 kts | 294° |
| 2026-04-30 13:14 | 17.16048 | -72.72022 | 37955 ft | 420 kts | 294° |
| 2026-04-30 13:14 | 17.20582 | -72.79833 | 37962 ft | 420 kts | 295° |
| 2026-04-30 13:15 | 17.25132 | -72.87682 | 37967 ft | 421 kts | 295° |
| 2026-04-30 13:16 | 17.28169 | -72.92926 | 37968 ft | 421 kts | 295° |
| 2026-04-30 13:16 | 17.31209 | -72.98180 | 37962 ft | 421 kts | 295° |
| 2026-04-30 13:17 | 17.35746 | -73.06027 | 37968 ft | 421 kts | 295° |
| 2026-04-30 13:18 | 17.40302 | -73.13918 | 37967 ft | 421 kts | 295° |
| 2026-04-30 13:18 | 17.44831 | -73.21769 | 37967 ft | 421 kts | 295° |
| 2026-04-30 13:19 | 17.47854 | -73.27015 | 37968 ft | 420 kts | 295° |
| 2026-04-30 13:19 | 17.50877 | -73.32266 | 37966 ft | 420 kts | 295° |
| 2026-04-30 13:20 | 17.53894 | -73.37512 | 37968 ft | 420 kts | 295° |
| 2026-04-30 13:20 | 17.56911 | -73.42759 | 37969 ft | 420 kts | 295° |
| 2026-04-30 13:21 | 17.59924 | -73.48005 | 37966 ft | 419 kts | 295° |
| 2026-04-30 13:22 | 17.64416 | -73.55833 | 37967 ft | 419 kts | 295° |
| 2026-04-30 13:22 | 17.68920 | -73.63692 | 37971 ft | 418 kts | 295° |
| 2026-04-30 13:23 | 17.73416 | -73.71546 | 37970 ft | 418 kts | 295° |
| 2026-04-30 13:24 | 17.79379 | -73.81977 | 37970 ft | 417 kts | 295° |
| 2026-04-30 13:25 | 17.85349 | -73.92437 | 37970 ft | 416 kts | 295° |
| 2026-04-30 13:26 | 17.92763 | -74.05451 | 37972 ft | 416 kts | 295° |
| 2026-04-30 13:28 | 18.00185 | -74.18506 | 37973 ft | 416 kts | 295° |
| 2026-04-30 13:28 | 18.04609 | -74.26299 | 37975 ft | 415 kts | 295° |
| 2026-04-30 13:29 | 18.10527 | -74.36738 | 37977 ft | 415 kts | 296° |
| 2026-04-30 13:31 | 18.17905 | -74.49779 | 37976 ft | 416 kts | 296° |
| 2026-04-30 13:32 | 18.25296 | -74.62867 | 37980 ft | 416 kts | 296° |
| 2026-04-30 13:33 | 18.31194 | -74.73331 | 37977 ft | 417 kts | 296° |
| 2026-04-30 13:34 | 18.35155 | -74.80369 | 37972 ft | 417 kts | 296° |
| 2026-04-30 13:35 | 18.41056 | -74.90864 | 37977 ft | 417 kts | 296° |
| 2026-04-30 13:36 | 18.46973 | -75.01405 | 37978 ft | 418 kts | 296° |
| 2026-04-30 13:36 | 18.51444 | -75.09382 | 37974 ft | 423 kts | 296° |
| 2026-04-30 13:37 | 18.56098 | -75.17224 | 37956 ft | 428 kts | 309° |
| 2026-04-30 13:38 | 18.63172 | -75.23222 | 37982 ft | 437 kts | 318° |
| 2026-04-30 13:39 | 18.72909 | -75.30842 | 37981 ft | 437 kts | 319° |
| 2026-04-30 13:40 | 18.80266 | -75.36570 | 37983 ft | 437 kts | 319° |
| 2026-04-30 13:40 | 18.85129 | -75.40360 | 37989 ft | 437 kts | 319° |
| 2026-04-30 13:41 | 18.90028 | -75.44180 | 37989 ft | 437 kts | 319° |
| 2026-04-30 13:41 | 18.94926 | -75.48002 | 37983 ft | 438 kts | 319° |
| 2026-04-30 13:42 | 18.99827 | -75.51830 | 37980 ft | 438 kts | 319° |
| 2026-04-30 13:42 | 19.07178 | -75.57576 | 37990 ft | 438 kts | 319° |
| 2026-04-30 13:43 | 19.12078 | -75.61409 | 37985 ft | 438 kts | 319° |
| 2026-04-30 13:43 | 19.16989 | -75.65255 | 37986 ft | 439 kts | 319° |
| 2026-04-30 13:44 | 19.21893 | -75.69098 | 37986 ft | 439 kts | 319° |
| 2026-04-30 13:44 | 19.26769 | -75.72921 | 37986 ft | 439 kts | 319° |
| 2026-04-30 13:45 | 19.34140 | -75.78707 | 37986 ft | 439 kts | 319° |
| 2026-04-30 13:46 | 19.39059 | -75.82572 | 37986 ft | 440 kts | 319° |
| 2026-04-30 13:46 | 19.43975 | -75.86438 | 37988 ft | 440 kts | 319° |
| 2026-04-30 13:47 | 19.48889 | -75.90305 | 37990 ft | 440 kts | 319° |
| 2026-04-30 13:47 | 19.53773 | -75.94151 | 37990 ft | 439 kts | 319° |
| 2026-04-30 13:48 | 19.58682 | -75.98019 | 37989 ft | 439 kts | 319° |
| 2026-04-30 13:48 | 19.63576 | -76.01881 | 37993 ft | 438 kts | 319° |
| 2026-04-30 13:49 | 19.68474 | -76.05749 | 37991 ft | 438 kts | 319° |
| 2026-04-30 13:49 | 19.73333 | -76.09588 | 37993 ft | 438 kts | 319° |
| 2026-04-30 13:50 | 19.78213 | -76.13448 | 37994 ft | 437 kts | 319° |
| 2026-04-30 13:50 | 19.85532 | -76.19242 | 38003 ft | 436 kts | 319° |
| 2026-04-30 13:51 | 19.90403 | -76.23102 | 37999 ft | 435 kts | 319° |
| 2026-04-30 13:51 | 19.95228 | -76.26928 | 38003 ft | 435 kts | 319° |
| 2026-04-30 13:52 | 20.00081 | -76.30780 | 38013 ft | 434 kts | 319° |
| 2026-04-30 13:52 | 20.04923 | -76.34626 | 38000 ft | 434 kts | 319° |
| 2026-04-30 13:53 | 20.09759 | -76.38471 | 38008 ft | 433 kts | 318° |
| 2026-04-30 13:53 | 20.14558 | -76.42288 | 38021 ft | 433 kts | 318° |
| 2026-04-30 13:54 | 20.19380 | -76.46127 | 38004 ft | 432 kts | 318° |
| 2026-04-30 13:54 | 20.24194 | -76.49963 | 38018 ft | 432 kts | 318° |
| 2026-04-30 13:55 | 20.29006 | -76.53800 | 38022 ft | 431 kts | 318° |
| 2026-04-30 13:55 | 20.33813 | -76.57636 | 38013 ft | 431 kts | 318° |
| 2026-04-30 13:56 | 20.38628 | -76.61481 | 38010 ft | 432 kts | 318° |
| 2026-04-30 13:56 | 20.43409 | -76.65295 | 38011 ft | 432 kts | 318° |
| 2026-04-30 13:57 | 20.48226 | -76.69136 | 38010 ft | 431 kts | 318° |
| 2026-04-30 13:57 | 20.53038 | -76.72976 | 38006 ft | 431 kts | 319° |
| 2026-04-30 13:58 | 20.60223 | -76.78715 | 38009 ft | 431 kts | 318° |
| 2026-04-30 13:59 | 20.65031 | -76.82559 | 38007 ft | 431 kts | 319° |
| 2026-04-30 13:59 | 20.69832 | -76.86400 | 38004 ft | 431 kts | 318° |
| 2026-04-30 14:00 | 20.74641 | -76.90251 | 38004 ft | 431 kts | 318° |
| 2026-04-30 14:00 | 20.81811 | -76.95999 | 38002 ft | 430 kts | 318° |
| 2026-04-30 14:01 | 20.86598 | -76.99841 | 38005 ft | 430 kts | 318° |
| 2026-04-30 14:01 | 20.91385 | -77.03685 | 38011 ft | 430 kts | 318° |
| 2026-04-30 14:02 | 20.96141 | -77.07508 | 38011 ft | 430 kts | 318° |
| 2026-04-30 14:02 | 21.00925 | -77.11355 | 38005 ft | 430 kts | 318° |
| 2026-04-30 14:03 | 21.05707 | -77.15205 | 38009 ft | 430 kts | 318° |
| 2026-04-30 14:03 | 21.10491 | -77.19059 | 38009 ft | 430 kts | 318° |
| 2026-04-30 14:04 | 21.15267 | -77.22910 | 38012 ft | 430 kts | 318° |
| 2026-04-30 14:04 | 21.20017 | -77.26743 | 38008 ft | 430 kts | 318° |
| 2026-04-30 14:05 | 21.24798 | -77.30605 | 38008 ft | 430 kts | 319° |
| 2026-04-30 14:05 | 21.29586 | -77.34475 | 38008 ft | 430 kts | 318° |
| 2026-04-30 14:06 | 21.36716 | -77.40244 | 38008 ft | 430 kts | 319° |
| 2026-04-30 14:07 | 21.43881 | -77.46060 | 38007 ft | 430 kts | 318° |
| 2026-04-30 14:08 | 21.51035 | -77.51876 | 38010 ft | 430 kts | 319° |
| 2026-04-30 14:08 | 21.58161 | -77.57677 | 38014 ft | 430 kts | 319° |
| 2026-04-30 14:09 | 21.62935 | -77.61567 | 38009 ft | 430 kts | 319° |
| 2026-04-30 14:10 | 21.70065 | -77.67383 | 38010 ft | 430 kts | 319° |
| 2026-04-30 14:10 | 21.74790 | -77.71242 | 38008 ft | 430 kts | 319° |
| 2026-04-30 14:11 | 21.79559 | -77.75140 | 38009 ft | 430 kts | 319° |
| 2026-04-30 14:11 | 21.84333 | -77.79044 | 38009 ft | 431 kts | 319° |
| 2026-04-30 14:12 | 21.89106 | -77.82953 | 38005 ft | 431 kts | 319° |
| 2026-04-30 14:12 | 21.93839 | -77.86860 | 38004 ft | 431 kts | 319° |
| 2026-04-30 14:13 | 21.98612 | -77.90803 | 38006 ft | 432 kts | 319° |
| 2026-04-30 14:13 | 22.03377 | -77.94743 | 38006 ft | 432 kts | 319° |
| 2026-04-30 14:14 | 22.08153 | -77.98694 | 38006 ft | 432 kts | 319° |
| 2026-04-30 14:14 | 22.12897 | -78.02623 | 38007 ft | 433 kts | 319° |
| 2026-04-30 14:15 | 22.17681 | -78.06589 | 38005 ft | 433 kts | 319° |
| 2026-04-30 14:15 | 22.22468 | -78.10560 | 38006 ft | 434 kts | 319° |
| 2026-04-30 14:16 | 22.27253 | -78.14533 | 38001 ft | 434 kts | 319° |
| 2026-04-30 14:16 | 22.32046 | -78.18517 | 38000 ft | 435 kts | 319° |
| 2026-04-30 14:17 | 22.36813 | -78.22482 | 37999 ft | 435 kts | 319° |
| 2026-04-30 14:17 | 22.41615 | -78.26480 | 37992 ft | 435 kts | 319° |
| 2026-04-30 14:18 | 22.46420 | -78.30484 | 37997 ft | 436 kts | 320° |
| 2026-04-30 14:18 | 22.53612 | -78.36470 | 37993 ft | 436 kts | 320° |
| 2026-04-30 14:19 | 22.60844 | -78.42476 | 37995 ft | 436 kts | 320° |
| 2026-04-30 14:20 | 22.65662 | -78.46482 | 38000 ft | 436 kts | 320° |
| 2026-04-30 14:20 | 22.72866 | -78.52481 | 38005 ft | 437 kts | 320° |
| 2026-04-30 14:21 | 22.77071 | -78.55586 | 37996 ft | 439 kts | 334° |
| 2026-04-30 14:21 | 22.82976 | -78.57274 | 38004 ft | 445 kts | 346° |
| 2026-04-30 14:22 | 22.86022 | -78.57918 | 38009 ft | 445 kts | 346° |
| 2026-04-30 14:22 | 22.95173 | -78.59697 | 38008 ft | 444 kts | 347° |
| 2026-04-30 14:23 | 23.07318 | -78.61987 | 38012 ft | 443 kts | 348° |
| 2026-04-30 14:24 | 23.16427 | -78.63705 | 38012 ft | 442 kts | 348° |
| 2026-04-30 14:25 | 23.28498 | -78.65986 | 38014 ft | 440 kts | 348° |
| 2026-04-30 14:26 | 23.37523 | -78.67694 | 38015 ft | 440 kts | 348° |
| 2026-04-30 14:27 | 23.46574 | -78.69409 | 38013 ft | 439 kts | 348° |
| 2026-04-30 14:27 | 23.52565 | -78.70549 | 38015 ft | 439 kts | 348° |
| 2026-04-30 14:28 | 23.61606 | -78.72263 | 38015 ft | 439 kts | 348° |
| 2026-04-30 14:28 | 23.67631 | -78.73409 | 38014 ft | 439 kts | 348° |
| 2026-04-30 14:29 | 23.79635 | -78.75695 | 38013 ft | 439 kts | 348° |
| 2026-04-30 14:31 | 23.94620 | -78.78554 | 37277 ft | 438 kts | 349° |
| 2026-04-30 14:31 | 24.00455 | -78.80187 | 37906 ft | 429 kts | 332° |
| 2026-04-30 14:31 | 24.03065 | -78.81770 | 38003 ft | 432 kts | 330° |
| 2026-04-30 14:32 | 24.10851 | -78.86762 | 38011 ft | 438 kts | 328° |
| 2026-04-30 14:33 | 24.16044 | -78.90187 | 38009 ft | 438 kts | 328° |
| 2026-04-30 14:33 | 24.23875 | -78.95373 | 37362 ft | 437 kts | 328° |
| 2026-04-30 14:34 | 24.26467 | -78.97091 | 36830 ft | 432 kts | 328° |
| 2026-04-30 14:34 | 24.29042 | -78.98799 | 36586 ft | 434 kts | 328° |
| 2026-04-30 14:34 | 24.31603 | -79.00499 | 36413 ft | 438 kts | 328° |
| 2026-04-30 14:34 | 24.34222 | -79.02238 | 36151 ft | 437 kts | 328° |
| 2026-04-30 14:35 | 24.39346 | -79.05642 | 35193 ft | 429 kts | 328° |
| 2026-04-30 14:35 | 24.41917 | -79.07352 | 34369 ft | 435 kts | 328° |
| 2026-04-30 14:35 | 24.44514 | -79.09079 | 33456 ft | 439 kts | 328° |
| 2026-04-30 14:36 | 24.47141 | -79.10826 | 32593 ft | 442 kts | 328° |
| 2026-04-30 14:36 | 24.49776 | -79.12580 | 31712 ft | 444 kts | 328° |
| 2026-04-30 14:36 | 24.52444 | -79.14358 | 30757 ft | 452 kts | 329° |
| 2026-04-30 14:36 | 24.55150 | -79.16162 | 29866 ft | 458 kts | 329° |
| 2026-04-30 14:37 | 24.57891 | -79.17991 | 28810 ft | 461 kts | 329° |
| 2026-04-30 14:37 | 24.60645 | -79.19828 | 27706 ft | 465 kts | 329° |
| 2026-04-30 14:37 | 24.63377 | -79.21652 | 26824 ft | 464 kts | 328° |
| 2026-04-30 14:37 | 24.66124 | -79.23487 | 26061 ft | 460 kts | 328° |
| 2026-04-30 14:38 | 24.68853 | -79.25311 | 25281 ft | 458 kts | 328° |
| 2026-04-30 14:38 | 24.71583 | -79.27136 | 24495 ft | 459 kts | 328° |
| 2026-04-30 14:38 | 24.74309 | -79.28960 | 23727 ft | 454 kts | 328° |
| 2026-04-30 14:38 | 24.77002 | -79.30762 | 22851 ft | 451 kts | 328° |
| 2026-04-30 14:39 | 24.79641 | -79.32529 | 22062 ft | 447 kts | 328° |
| 2026-04-30 14:39 | 24.82287 | -79.34302 | 21278 ft | 442 kts | 328° |
| 2026-04-30 14:39 | 24.84919 | -79.36067 | 20386 ft | 441 kts | 328° |
| 2026-04-30 14:40 | 24.90104 | -79.39545 | 19015 ft | 431 kts | 328° |
| 2026-04-30 14:40 | 24.92658 | -79.41260 | 18333 ft | 427 kts | 328° |
| 2026-04-30 14:40 | 24.95187 | -79.42958 | 17511 ft | 424 kts | 328° |
| 2026-04-30 14:40 | 24.97691 | -79.44641 | 16863 ft | 418 kts | 327° |
| 2026-04-30 14:41 | 25.00121 | -79.46275 | 16288 ft | 411 kts | 327° |
| 2026-04-30 14:41 | 25.02495 | -79.47872 | 16281 ft | 390 kts | 327° |
| 2026-04-30 14:41 | 25.04773 | -79.49404 | 16115 ft | 375 kts | 327° |
| 2026-04-30 14:41 | 25.06965 | -79.50880 | 15930 ft | 363 kts | 327° |
| 2026-04-30 14:42 | 25.09090 | -79.52311 | 15740 ft | 352 kts | 327° |
| 2026-04-30 14:42 | 25.11178 | -79.53718 | 15295 ft | 349 kts | 327° |
| 2026-04-30 14:42 | 25.13211 | -79.55088 | 14923 ft | 345 kts | 327° |
| 2026-04-30 14:42 | 25.15248 | -79.56462 | 14542 ft | 341 kts | 327° |
| 2026-04-30 14:43 | 25.17261 | -79.57820 | 14158 ft | 337 kts | 327° |
| 2026-04-30 14:43 | 25.19254 | -79.59165 | 13765 ft | 334 kts | 327° |
| 2026-04-30 14:43 | 25.21228 | -79.60498 | 13333 ft | 331 kts | 327° |
| 2026-04-30 14:43 | 25.23181 | -79.61816 | 12936 ft | 327 kts | 327° |
| 2026-04-30 14:44 | 25.25117 | -79.63125 | 12551 ft | 324 kts | 327° |
| 2026-04-30 14:44 | 25.27026 | -79.64415 | 12180 ft | 320 kts | 327° |
| 2026-04-30 14:44 | 25.28919 | -79.65694 | 11811 ft | 317 kts | 327° |
| 2026-04-30 14:44 | 25.30794 | -79.66963 | 11441 ft | 314 kts | 327° |
| 2026-04-30 14:45 | 25.32652 | -79.68220 | 11074 ft | 312 kts | 327° |
| 2026-04-30 14:45 | 25.34494 | -79.69467 | 10792 ft | 308 kts | 327° |
| 2026-04-30 14:45 | 25.36294 | -79.70686 | 10634 ft | 299 kts | 327° |
| 2026-04-30 14:45 | 25.38040 | -79.71867 | 10489 ft | 290 kts | 327° |
| 2026-04-30 14:46 | 25.39693 | -79.73086 | 10336 ft | 281 kts | 323° |
| 2026-04-30 14:46 | 25.41247 | -79.74297 | 10198 ft | 272 kts | 324° |
| 2026-04-30 14:46 | 25.42777 | -79.75482 | 10066 ft | 264 kts | 324° |
| 2026-04-30 14:46 | 25.44268 | -79.76647 | 9846 ft | 263 kts | 323° |
| 2026-04-30 14:47 | 25.45783 | -79.77837 | 9536 ft | 269 kts | 323° |
| 2026-04-30 14:47 | 25.47328 | -79.79049 | 9255 ft | 273 kts | 323° |
| 2026-04-30 14:47 | 25.48857 | -79.80247 | 9031 ft | 272 kts | 323° |
| 2026-04-30 14:47 | 25.50403 | -79.81459 | 8991 ft | 272 kts | 323° |
| 2026-04-30 14:48 | 25.51951 | -79.82673 | 8985 ft | 273 kts | 323° |
| 2026-04-30 14:48 | 25.53519 | -79.83903 | 8528 ft | 279 kts | 323° |
| 2026-04-30 14:48 | 25.55109 | -79.85150 | 7995 ft | 281 kts | 323° |
| 2026-04-30 14:48 | 25.56704 | -79.86401 | 7568 ft | 279 kts | 323° |
| 2026-04-30 14:49 | 25.58096 | -79.87850 | 7191 ft | 273 kts | 303° |
| 2026-04-30 14:49 | 25.58431 | -79.88456 | 7081 ft | 271 kts | 298° |
| 2026-04-30 14:49 | 25.58943 | -79.89456 | 6925 ft | 267 kts | 299° |
| 2026-04-30 14:49 | 25.59865 | -79.91209 | 6641 ft | 260 kts | 299° |
| 2026-04-30 14:50 | 25.61633 | -79.94609 | 6084 ft | 250 kts | 299° |
| 2026-04-30 14:50 | 25.62491 | -79.96267 | 5812 ft | 246 kts | 298° |
| 2026-04-30 14:51 | 25.64172 | -79.99471 | 5285 ft | 235 kts | 299° |
| 2026-04-30 14:51 | 25.64986 | -80.01028 | 5033 ft | 230 kts | 298° |
| 2026-04-30 14:51 | 25.66539 | -80.04013 | 4540 ft | 220 kts | 298° |
| 2026-04-30 14:52 | 25.67281 | -80.05469 | 4328 ft | 215 kts | 298° |
| 2026-04-30 14:52 | 25.68745 | -80.08334 | 3849 ft | 212 kts | 298° |
| 2026-04-30 14:52 | 25.69466 | -80.09747 | 3617 ft | 208 kts | 298° |
| 2026-04-30 14:53 | 25.70861 | -80.12475 | 3164 ft | 202 kts | 298° |
| 2026-04-30 14:53 | 25.71557 | -80.13837 | 2981 ft | 197 kts | 298° |
| 2026-04-30 14:54 | 25.72898 | -80.16466 | 2422 ft | 195 kts | 297° |
| 2026-04-30 14:54 | 25.74205 | -80.19025 | 1839 ft | 192 kts | 297° |
| 2026-04-30 14:55 | 25.75471 | -80.21499 | 1341 ft | 172 kts | 297° |
| 2026-04-30 14:55 | 25.76051 | -80.22633 | 1107 ft | 166 kts | 297° |
| 2026-04-30 14:55 | 25.77026 | -80.24553 | 740 ft | 148 kts | 298° |
| 2026-04-30 14:56 | 25.78018 | -80.26495 | 380 ft | 146 kts | 298° |
| 2026-04-30 14:56 | 25.79003 | -80.28424 | 23 ft | 140 kts | 298° |
| 2026-04-30 14:57 | 25.79433 | -80.29264 | 17 ft | 104 kts | 298° |
| 2026-04-30 14:57 | 25.79810 | -80.29785 | 16 ft | 3 kts | 60° |
| 2026-04-30 14:58 | 25.79779 | -80.29692 | 17 ft | 14 kts | 121° |
| 2026-04-30 14:58 | 25.79712 | -80.29560 | 17 ft | 25 kts | 120° |
| 2026-04-30 14:58 | 25.79498 | -80.29141 | 17 ft | 14 kts | 112° |
| 2026-04-30 14:59 | 25.79601 | -80.29084 | 17 ft | 16 kts | 356° |
| 2026-04-30 15:00 | 25.79654 | -80.28886 | 19 ft | 16 kts | 111° |
| 2026-04-30 15:00 | 25.79651 | -80.28603 | 17 ft | 21 kts | 88° |
| 2026-04-30 15:01 | 25.79675 | -80.28303 | 17 ft | 12 kts | 87° |
| 2026-04-30 15:01 | 25.79660 | -80.28239 | 20 ft | 14 kts | 117° |
| 2026-04-30 15:01 | 25.79618 | -80.28113 | 20 ft | 3 kts | 107° |
| 2026-04-30 15:02 | 25.79625 | -80.28085 | 17 ft | 5 kts | 60° |
| 2026-04-30 15:02 | 25.79641 | -80.28060 | 18 ft | 0 kts | 52° |